createdAt,value
2023-02-19T00:01:17.542Z,13.93
2023-02-19T00:03:49.074Z,17.33
2023-02-19T00:06:15.760Z,16.42
2023-02-19T00:08:42.688Z,17.05
2023-02-19T00:11:13.363Z,18.27
2023-02-19T00:13:43.274Z,15.18
2023-02-19T00:16:15.367Z,17.08
2023-02-19T00:18:43.094Z,14.70
2023-02-19T00:21:10.235Z,14.18
2023-02-19T00:23:37.392Z,14.68
2023-02-19T00:26:17.728Z,20.20
2023-02-19T00:28:51.293Z,12.75
2023-02-19T00:31:24.131Z,14.02
2023-02-19T00:33:53.988Z,20.65
2023-02-19T00:36:23.022Z,15.32
2023-02-19T00:38:49.882Z,12.82
2023-02-19T00:41:21.449Z,14.38
2023-02-19T00:43:55.462Z,17.25
2023-02-19T00:46:48.745Z,14.20
2023-02-19T00:49:18.621Z,16.05
2023-02-19T00:51:45.913Z,17.02
2023-02-19T00:54:13.658Z,13.57
2023-02-19T00:56:41.070Z,17.42
2023-02-19T00:59:07.730Z,19.83
2023-02-19T01:01:34.319Z,14.55
2023-02-19T01:04:05.479Z,16.02
2023-02-19T01:06:33.416Z,15.75
2023-02-19T01:09:01.239Z,21.60
2023-02-19T01:11:27.892Z,19.35
2023-02-19T01:13:58.479Z,27.70
2023-02-19T01:16:25.336Z,22.70
2023-02-19T01:18:52.501Z,35.65
2023-02-19T01:21:22.587Z,20.67
2023-02-19T01:23:50.971Z,21.25
2023-02-19T01:26:23.054Z,28.48
2023-02-19T01:28:49.839Z,26.20
2023-02-19T01:31:20.908Z,26.50
2023-02-19T01:33:49.678Z,25.33
2023-02-19T01:36:16.782Z,24.48
2023-02-19T01:38:43.995Z,26.25
2023-02-19T01:41:13.691Z,20.27
2023-02-19T01:43:58.665Z,24.10
2023-02-19T01:46:34.146Z,29.88
2023-02-19T01:49:27.506Z,19.80
2023-02-19T01:52:04.390Z,22.60
2023-02-19T01:54:35.572Z,20.98
2023-02-19T01:57:06.755Z,27.95
2023-02-19T01:59:34.286Z,27.42
2023-02-19T02:02:01.262Z,23.35
2023-02-19T02:04:31.748Z,19.73
2023-02-19T02:07:02.888Z,20.23
2023-02-19T02:09:50.599Z,18.15
2023-02-19T02:12:17.336Z,23.63
2023-02-19T02:14:47.069Z,23.95
2023-02-19T02:17:38.222Z,19.73
2023-02-19T02:20:32.496Z,16.48
2023-02-19T02:23:28.394Z,20.48
2023-02-19T02:26:13.772Z,19.63
2023-02-19T02:29:17.864Z,16.75
2023-02-19T02:31:53.084Z,16.75
2023-02-19T02:34:26.758Z,13.70
2023-02-19T02:36:56.720Z,14.02
2023-02-19T02:39:27.169Z,16.23
2023-02-19T02:42:18.486Z,17.45
2023-02-19T02:45:08.012Z,18.98
2023-02-19T02:47:43.163Z,21.38
2023-02-19T02:50:15.276Z,20.15
2023-02-19T02:53:03.675Z,18.60
2023-02-19T02:55:34.312Z,16.92
2023-02-19T02:58:01.700Z,23.48
2023-02-19T03:00:49.677Z,13.43
2023-02-19T03:03:20.478Z,13.52
2023-02-19T03:05:53.293Z,12.90
2023-02-19T03:08:31.616Z,16.55
2023-02-19T03:11:22.846Z,10.70
2023-02-19T03:14:15.230Z,16.90
2023-02-19T03:17:04.222Z,12.52
2023-02-19T03:19:35.580Z,13.98
2023-02-19T03:22:10.828Z,9.60
2023-02-19T03:25:09.308Z,10.32
2023-02-19T03:27:39.183Z,12.18
2023-02-19T03:30:15.675Z,7.00
2023-02-19T03:32:51.980Z,7.78
2023-02-19T03:35:26.326Z,11.30
2023-02-19T03:38:18.795Z,10.98
2023-02-19T03:41:11.363Z,8.77
2023-02-19T03:43:44.669Z,9.68
2023-02-19T03:46:23.401Z,10.35
2023-02-19T03:49:24.495Z,9.40
2023-02-19T03:52:13.507Z,8.18
2023-02-19T03:55:12.400Z,11.18
2023-02-19T03:58:02.781Z,9.05
2023-02-19T04:00:50.377Z,10.13
2023-02-19T04:03:22.899Z,8.23
2023-02-19T04:05:58.951Z,8.70
2023-02-19T04:08:28.018Z,8.63
2023-02-19T04:10:58.323Z,8.82
2023-02-19T04:13:31.996Z,9.18
2023-02-19T04:16:03.860Z,9.82
2023-02-19T04:18:36.257Z,8.07
2023-02-19T04:21:05.596Z,10.05
2023-02-19T04:23:38.522Z,9.98
2023-02-19T04:26:08.036Z,6.40
2023-02-19T04:28:35.959Z,8.10
2023-02-19T04:31:02.704Z,6.07
2023-02-19T04:33:29.413Z,5.25
2023-02-19T04:35:55.949Z,8.68
2023-02-19T04:38:22.590Z,6.15
2023-02-19T04:40:51.489Z,8.48
2023-02-19T04:43:18.991Z,12.55
2023-02-19T04:45:45.660Z,8.98
2023-02-19T04:48:12.358Z,7.22
2023-02-19T04:50:40.017Z,9.10
2023-02-19T04:53:07.446Z,15.38
2023-02-19T04:55:38.068Z,7.95
2023-02-19T04:58:04.909Z,8.80
2023-02-19T05:00:34.022Z,8.77
2023-02-19T05:03:01.122Z,8.23
2023-02-19T05:05:28.213Z,7.97
2023-02-19T05:07:54.788Z,11.35
2023-02-19T05:10:21.508Z,5.38
2023-02-19T05:12:48.550Z,11.52
2023-02-19T05:15:15.221Z,10.95
2023-02-19T05:17:41.793Z,7.95
2023-02-19T05:20:09.170Z,11.18
2023-02-19T05:22:35.744Z,8.27
2023-02-19T05:25:04.435Z,10.27
2023-02-19T05:27:32.227Z,8.55
2023-02-19T05:30:00.978Z,7.32
2023-02-19T05:32:27.574Z,10.98
2023-02-19T05:34:54.305Z,10.45
2023-02-19T05:37:20.952Z,10.68
2023-02-19T05:39:49.142Z,6.53
2023-02-19T05:42:15.783Z,6.15
2023-02-19T05:44:42.828Z,8.80
2023-02-19T05:47:09.456Z,8.65
2023-02-19T05:49:36.242Z,10.30
2023-02-19T05:52:03.202Z,7.93
2023-02-19T05:54:30.292Z,8.05
2023-02-19T05:56:57.409Z,8.07
2023-02-19T05:59:26.242Z,10.20
2023-02-19T06:01:54.171Z,10.60
2023-02-19T06:04:21.202Z,8.82
2023-02-19T06:06:49.125Z,12.02
2023-02-19T06:09:16.061Z,10.20
2023-02-19T06:11:43.675Z,14.98
2023-02-19T06:14:13.653Z,11.25
2023-02-19T06:16:40.677Z,12.75
2023-02-19T06:19:07.723Z,7.53
2023-02-19T06:21:34.566Z,13.52
2023-02-19T06:24:06.197Z,12.48
2023-02-19T06:26:32.906Z,12.68
2023-02-19T06:31:30.396Z,10.75
2023-02-19T06:33:57.035Z,9.52
2023-02-19T06:36:24.992Z,15.38
2023-02-19T06:38:53.277Z,9.93
2023-02-19T06:41:20.028Z,13.52
2023-02-19T06:43:46.853Z,14.20
2023-02-19T06:46:15.167Z,8.65
2023-02-19T06:48:43.966Z,10.55
2023-02-19T06:51:15.555Z,13.30
2023-02-19T06:53:43.112Z,9.98
2023-02-19T06:56:27.910Z,10.27
2023-02-19T06:58:57.162Z,11.32
2023-02-19T07:01:24.402Z,9.80
2023-02-19T07:03:52.756Z,10.45
2023-02-19T07:06:20.808Z,10.65
2023-02-19T07:08:47.711Z,10.13
2023-02-19T07:11:14.564Z,6.63
2023-02-19T07:13:41.260Z,6.85
2023-02-19T07:16:10.652Z,7.63
2023-02-19T07:18:38.746Z,9.48
2023-02-19T07:21:12.046Z,7.28
2023-02-19T07:23:39.891Z,7.28
2023-02-19T07:26:10.087Z,5.32
2023-02-19T07:28:36.766Z,5.82
2023-02-19T07:31:04.847Z,6.82
2023-02-19T07:33:31.827Z,8.02
2023-02-19T07:35:58.581Z,7.25
2023-02-19T07:38:26.617Z,6.07
2023-02-19T07:41:01.179Z,9.05
2023-02-19T07:43:32.997Z,2.90
2023-02-19T07:46:08.413Z,2.30
2023-02-19T07:48:37.030Z,5.50
2023-02-19T07:51:06.653Z,2.10
2023-02-19T07:53:34.869Z,2.30
2023-02-19T07:56:06.953Z,2.58
2023-02-19T07:58:34.425Z,2.30
2023-02-19T08:01:17.919Z,2.15
2023-02-19T08:03:48.217Z,1.80
2023-02-19T08:06:16.106Z,1.67
2023-02-19T08:08:43.025Z,1.83
2023-02-19T08:11:29.416Z,1.60
2023-02-19T08:13:56.096Z,1.67
2023-02-19T08:16:36.925Z,1.77
2023-02-19T08:19:09.109Z,1.52
2023-02-19T08:21:35.849Z,1.88
2023-02-19T08:24:02.609Z,1.67
2023-02-19T08:26:29.367Z,1.73
2023-02-19T08:28:56.264Z,2.00
2023-02-19T08:31:23.136Z,2.10
2023-02-19T08:33:49.875Z,1.70
2023-02-19T08:36:16.947Z,2.10
2023-02-19T08:38:43.771Z,2.15
2023-02-19T08:41:12.955Z,2.78
2023-02-19T08:43:41.077Z,2.55
2023-02-19T08:46:10.438Z,2.08
2023-02-19T08:48:37.797Z,2.40
2023-02-19T08:51:09.133Z,2.50
2023-02-19T08:53:38.453Z,2.42
2023-02-19T08:56:16.923Z,2.45
2023-02-19T08:58:44.662Z,2.85
2023-02-19T09:01:18.625Z,2.58
2023-02-19T09:03:45.641Z,3.30
2023-02-19T09:06:16.559Z,2.53
2023-02-19T09:08:43.376Z,2.20
2023-02-19T09:11:10.390Z,2.70
2023-02-19T09:13:37.429Z,2.50
2023-02-19T09:16:05.347Z,2.70
2023-02-19T09:18:32.584Z,2.65
2023-02-19T09:21:05.364Z,1.95
2023-02-19T09:23:36.451Z,2.97
2023-02-19T09:26:07.025Z,2.53
2023-02-19T09:28:35.400Z,2.63
2023-02-19T09:31:21.178Z,2.65
2023-02-19T09:33:48.688Z,2.53
2023-02-19T09:36:16.426Z,3.05
2023-02-19T09:38:44.311Z,2.30
2023-02-19T09:41:38.057Z,2.10
2023-02-19T09:44:10.174Z,2.60
2023-02-19T09:46:53.743Z,2.08
2023-02-19T09:49:32.066Z,2.40
2023-02-19T09:52:06.532Z,2.00
2023-02-19T09:54:34.467Z,1.90
2023-02-19T09:57:02.726Z,1.70
2023-02-19T09:59:37.463Z,2.05
2023-02-19T10:02:25.822Z,1.55
2023-02-19T10:04:53.833Z,2.13
2023-02-19T10:07:24.105Z,2.30
2023-02-19T10:10:14.538Z,2.15
2023-02-19T10:12:50.575Z,2.72
2023-02-19T10:15:25.696Z,2.22
2023-02-19T10:17:53.746Z,2.58
2023-02-19T10:20:24.858Z,2.33
2023-02-19T10:23:04.058Z,2.50
2023-02-19T10:25:33.085Z,2.25
2023-02-19T10:28:02.188Z,2.83
2023-02-19T10:30:34.890Z,4.10
2023-02-19T10:33:14.538Z,2.42
2023-02-19T10:36:05.587Z,2.78
2023-02-19T10:38:39.222Z,2.95
2023-02-19T10:41:13.439Z,2.53
2023-02-19T10:43:44.231Z,2.60
2023-02-19T10:46:48.276Z,2.85
2023-02-19T10:49:28.085Z,3.28
2023-02-19T10:51:56.712Z,2.95
2023-02-19T10:54:31.284Z,5.15
2023-02-19T10:57:29.881Z,4.22
2023-02-19T11:00:02.304Z,2.45
2023-02-19T11:02:30.802Z,2.70
2023-02-19T11:05:21.107Z,19.35
2023-02-19T11:07:49.834Z,19.67
2023-02-19T11:10:32.677Z,4.70
2023-02-19T11:13:02.705Z,3.40
2023-02-19T11:15:34.944Z,5.95
2023-02-19T11:18:19.601Z,4.45
2023-02-19T11:21:07.112Z,3.40
2023-02-19T11:23:46.345Z,2.28
2023-02-19T11:26:23.715Z,3.40
2023-02-19T11:29:00.162Z,3.38
2023-02-19T11:31:31.752Z,3.10
2023-02-19T11:34:01.363Z,2.75
2023-02-19T11:36:32.245Z,2.85
2023-02-19T11:39:21.345Z,6.95
2023-02-19T11:42:12.781Z,2.80
2023-02-19T11:44:48.680Z,2.70
2023-02-19T11:47:39.984Z,2.95
2023-02-19T11:50:26.657Z,2.65
2023-02-19T11:53:12.036Z,2.60
2023-02-19T11:55:54.065Z,2.25
2023-02-19T11:58:49.446Z,3.03
2023-02-19T12:01:51.739Z,2.10
2023-02-19T12:04:59.963Z,1.98
2023-02-19T12:07:54.443Z,2.08
2023-02-19T12:10:30.643Z,2.38
2023-02-19T12:13:12.530Z,2.53
2023-02-19T12:15:44.268Z,2.35
2023-02-19T12:18:23.175Z,2.38
2023-02-19T12:21:04.379Z,2.40
2023-02-19T12:23:33.941Z,2.45
2023-02-19T12:26:19.282Z,2.58
2023-02-19T12:29:10.958Z,2.13
2023-02-19T12:31:56.493Z,2.70
2023-02-19T12:34:44.998Z,2.50
2023-02-19T12:37:23.045Z,2.50
2023-02-19T12:40:11.404Z,1.92
2023-02-19T12:42:44.974Z,2.30
2023-02-19T12:45:35.882Z,2.25
2023-02-19T12:48:15.552Z,2.55
2023-02-19T12:50:45.383Z,2.40
2023-02-19T12:53:29.654Z,2.00
2023-02-19T12:55:57.640Z,2.20
2023-02-19T12:58:43.058Z,2.83
2023-02-19T13:01:16.061Z,2.33
2023-02-19T13:03:53.722Z,2.03
2023-02-19T13:06:35.436Z,1.95
2023-02-19T13:09:18.772Z,2.10
2023-02-19T13:11:54.493Z,2.78
2023-02-19T13:14:29.964Z,3.47
2023-02-19T13:17:03.998Z,2.47
2023-02-19T13:19:32.021Z,2.45
2023-02-19T13:22:50.848Z,2.58
2023-02-19T13:27:54.561Z,1.98
2023-02-19T13:30:53.149Z,2.50
2023-02-19T13:33:33.535Z,2.28
2023-02-19T13:36:06.394Z,2.50
2023-02-19T13:38:38.333Z,2.50
2023-02-19T13:41:05.086Z,1.98
2023-02-19T13:43:41.063Z,1.95
2023-02-19T13:46:11.006Z,7.80
2023-02-19T13:48:40.404Z,3.25
2023-02-19T13:51:24.629Z,2.10
2023-02-19T13:53:58.798Z,2.42
2023-02-19T13:56:31.703Z,2.20
2023-02-19T13:59:17.360Z,2.38
2023-02-19T14:01:50.168Z,2.00
2023-02-19T14:04:43.849Z,2.20
2023-02-19T14:07:10.582Z,2.10
2023-02-19T14:09:37.422Z,1.80
2023-02-19T14:12:15.477Z,1.65
2023-02-19T14:14:46.222Z,1.70
2023-02-19T14:17:39.368Z,1.90
2023-02-19T14:20:10.923Z,1.80
2023-02-19T14:22:52.922Z,2.08
2023-02-19T14:25:31.543Z,2.25
2023-02-19T14:28:02.928Z,2.58
2023-02-19T14:30:31.753Z,2.00
2023-02-19T14:33:10.183Z,1.92
2023-02-19T14:35:42.711Z,2.28
2023-02-19T14:38:25.142Z,1.77
2023-02-19T14:40:53.402Z,2.28
2023-02-19T14:43:23.691Z,2.78
2023-02-19T14:46:03.383Z,3.22
2023-02-19T14:48:37.912Z,3.03
2023-02-19T14:51:32.895Z,2.58
2023-02-19T14:54:09.640Z,2.25
2023-02-19T14:59:08.264Z,2.33
2023-02-19T15:01:35.111Z,2.70
2023-02-19T15:04:02.035Z,2.65
2023-02-19T15:06:31.621Z,3.25
2023-02-19T15:09:03.037Z,2.75
2023-02-19T15:11:33.105Z,2.33
2023-02-19T15:14:03.946Z,2.20
2023-02-19T15:16:32.508Z,2.53
2023-02-19T15:19:00.368Z,2.90
2023-02-19T15:21:32.808Z,1.85
2023-02-19T15:24:03.212Z,1.95
2023-02-19T15:26:43.144Z,2.00
2023-02-19T15:29:15.730Z,2.22
2023-02-19T15:31:54.133Z,2.85
2023-02-19T15:34:24.306Z,2.08
2023-02-19T15:36:55.747Z,3.40
2023-02-19T15:39:25.568Z,1.90
2023-02-19T15:42:00.318Z,2.20
2023-02-19T15:44:33.492Z,2.03
2023-02-19T15:47:09.197Z,2.20
2023-02-19T15:50:03.424Z,1.63
2023-02-19T15:52:51.349Z,1.92
2023-02-19T15:55:28.245Z,2.72
2023-02-19T15:58:05.960Z,2.25
2023-02-19T16:00:39.138Z,2.17
2023-02-19T16:03:08.348Z,2.58
2023-02-19T16:05:39.999Z,2.33
2023-02-19T16:08:30.566Z,2.88
2023-02-19T16:11:00.485Z,2.40
2023-02-19T16:13:30.504Z,4.40
2023-02-19T16:16:26.333Z,3.03
2023-02-19T16:18:54.457Z,1.90
2023-02-19T16:21:24.825Z,2.20
2023-02-19T16:24:06.281Z,2.03
2023-02-19T16:26:46.537Z,2.10
2023-02-19T16:29:31.996Z,2.30
2023-02-19T16:32:01.908Z,2.53
2023-02-19T16:34:51.760Z,2.78
2023-02-19T16:37:44.168Z,1.90
2023-02-19T16:40:16.392Z,2.05
2023-02-19T16:42:49.662Z,1.83
2023-02-19T16:45:17.791Z,2.35
2023-02-19T16:47:48.375Z,1.73
2023-02-19T16:50:17.525Z,1.38
2023-02-19T16:52:53.631Z,1.60
2023-02-19T16:55:20.271Z,2.55
2023-02-19T16:57:46.911Z,2.17
2023-02-19T17:00:25.263Z,2.00
2023-02-19T17:02:56.421Z,3.75
2023-02-19T17:05:27.720Z,2.05
2023-02-19T17:07:54.341Z,1.83
2023-02-19T17:10:26.274Z,2.10
2023-02-19T17:12:54.174Z,2.25
2023-02-19T17:15:21.688Z,2.00
2023-02-19T17:17:48.949Z,2.10
2023-02-19T17:20:26.539Z,3.42
2023-02-19T17:22:56.388Z,2.65
2023-02-19T17:25:23.592Z,3.13
2023-02-19T17:27:52.087Z,11.10
2023-02-19T17:30:26.121Z,2.45
2023-02-19T17:32:56.726Z,2.42
2023-02-19T17:35:24.081Z,2.53
2023-02-19T17:37:53.265Z,2.65
2023-02-19T17:40:32.380Z,2.47
2023-02-19T17:43:01.929Z,4.10
2023-02-19T17:45:28.699Z,2.45
2023-02-19T17:47:55.599Z,3.30
2023-02-19T17:50:26.423Z,2.75
2023-02-19T17:52:53.150Z,3.67
2023-02-19T17:55:20.912Z,2.83
2023-02-19T17:57:49.445Z,3.53
2023-02-19T18:00:18.885Z,2.80
2023-02-19T18:02:45.657Z,3.60
2023-02-19T18:05:13.022Z,2.90
2023-02-19T18:07:39.919Z,2.33
2023-02-19T18:10:08.419Z,4.90
2023-02-19T18:12:54.086Z,4.43
2023-02-19T18:15:25.356Z,3.05
2023-02-19T18:17:52.618Z,2.60
2023-02-19T18:20:27.576Z,2.70
2023-02-19T18:22:55.573Z,2.13
2023-02-19T18:25:23.077Z,1.60
2023-02-19T18:27:50.252Z,2.05
2023-02-19T18:30:20.615Z,2.30
2023-02-19T18:32:49.982Z,1.80
2023-02-19T18:35:20.069Z,1.70
2023-02-19T18:37:51.763Z,4.85
2023-02-19T18:40:26.004Z,1.70
2023-02-19T18:42:52.935Z,1.63
2023-02-19T18:45:19.911Z,1.67
2023-02-19T18:47:52.206Z,1.88
2023-02-19T18:50:19.619Z,1.80
2023-02-19T18:52:46.277Z,1.23
2023-02-19T18:55:14.539Z,1.60
2023-02-19T18:57:41.261Z,1.48
2023-02-19T19:00:09.637Z,1.65
2023-02-19T19:02:48.629Z,2.10
2023-02-19T19:05:25.524Z,2.88
2023-02-19T19:07:57.906Z,1.80
2023-02-19T19:10:25.304Z,2.80
2023-02-19T19:12:52.245Z,5.28
2023-02-19T19:15:19.092Z,1.48
2023-02-19T19:17:46.926Z,1.77
2023-02-19T19:20:14.854Z,1.35
2023-02-19T19:22:41.584Z,1.30
2023-02-19T19:25:09.066Z,1.77
2023-02-19T19:27:35.706Z,1.27
2023-02-19T19:30:04.456Z,2.05
2023-02-19T19:32:31.247Z,1.73
2023-02-19T19:34:57.930Z,2.95
2023-02-19T19:37:28.325Z,3.63
2023-02-19T19:39:56.520Z,2.00
2023-02-19T19:42:24.222Z,1.85
2023-02-19T19:44:51.215Z,2.95
2023-02-19T19:47:17.942Z,2.55
2023-02-19T19:49:47.225Z,3.20
2023-02-19T19:52:14.131Z,2.05
2023-02-19T19:54:42.499Z,3.50
2023-02-19T19:57:09.530Z,3.17
2023-02-19T19:59:37.084Z,1.55
2023-02-19T20:02:03.754Z,1.70
2023-02-19T20:04:30.732Z,1.90
2023-02-19T20:06:58.821Z,5.18
2023-02-19T20:09:29.294Z,1.85
2023-02-19T20:11:56.871Z,1.60
2023-02-19T20:14:25.829Z,1.75
2023-02-19T20:16:54.926Z,1.77
2023-02-19T20:19:21.962Z,3.55
2023-02-19T20:21:51.447Z,2.00
2023-02-19T20:24:26.019Z,1.95
2023-02-19T20:27:02.163Z,2.17
2023-02-19T20:29:31.487Z,1.70
2023-02-19T20:32:00.299Z,1.55
2023-02-19T20:34:29.434Z,2.13
2023-02-19T20:36:56.185Z,2.13
2023-02-19T20:39:23.133Z,2.58
2023-02-19T20:41:51.563Z,2.55
2023-02-19T20:44:18.475Z,2.30
2023-02-19T20:46:47.579Z,1.90
2023-02-19T20:49:16.656Z,2.03
2023-02-19T20:51:49.968Z,2.70
2023-02-19T20:54:17.230Z,2.53
2023-02-19T20:56:48.256Z,2.75
2023-02-19T20:59:16.427Z,2.47
2023-02-19T21:01:43.850Z,2.92
2023-02-19T21:04:11.681Z,2.85
2023-02-19T21:06:38.462Z,3.38
2023-02-19T21:09:06.062Z,3.13
2023-02-19T21:11:33.701Z,3.72
2023-02-19T21:14:00.326Z,3.80
2023-02-19T21:16:28.678Z,3.67
2023-02-19T21:18:55.976Z,6.60
2023-02-19T21:21:25.408Z,7.45
2023-02-19T21:23:56.620Z,5.32
2023-02-19T21:26:24.413Z,4.53
2023-02-19T21:28:54.259Z,4.00
2023-02-19T21:31:22.485Z,4.32
2023-02-19T21:33:50.632Z,4.40
2023-02-19T21:36:18.720Z,4.63
2023-02-19T21:38:45.359Z,3.95
2023-02-19T21:41:11.936Z,4.78
2023-02-19T21:43:38.653Z,4.28
2023-02-19T21:46:05.383Z,3.38
2023-02-19T21:48:32.067Z,3.60
2023-02-19T21:50:58.650Z,2.90
2023-02-19T21:53:25.266Z,3.08
2023-02-19T21:55:58.576Z,3.13
2023-02-19T21:58:26.710Z,3.00
2023-02-19T22:00:56.437Z,3.50
2023-02-19T22:03:23.057Z,2.78
2023-02-19T22:05:49.809Z,2.95
2023-02-19T22:08:17.545Z,3.30
2023-02-19T22:10:44.619Z,2.97
2023-02-19T22:13:12.617Z,2.95
2023-02-19T22:15:39.194Z,2.60
2023-02-19T22:18:05.966Z,2.78
2023-02-19T22:20:34.733Z,2.92
2023-02-19T22:23:01.769Z,2.35
2023-02-19T22:25:28.380Z,3.58
2023-02-19T22:27:55.018Z,2.63
2023-02-19T22:30:21.802Z,2.53
2023-02-19T22:32:48.551Z,3.58
2023-02-19T22:35:15.874Z,2.90
2023-02-19T22:37:43.109Z,2.92
2023-02-19T22:40:10.204Z,2.85
2023-02-19T22:42:37.921Z,3.78
2023-02-19T22:45:05.893Z,3.33
2023-02-19T22:47:32.515Z,3.15
2023-02-19T22:49:59.162Z,2.90
2023-02-19T22:52:28.081Z,5.00
2023-02-19T22:54:55.866Z,3.97
2023-02-19T22:57:22.493Z,3.05
2023-02-19T22:59:49.253Z,3.47
2023-02-19T23:02:15.843Z,4.47
2023-02-19T23:04:42.471Z,3.50
2023-02-19T23:07:09.149Z,4.80
2023-02-19T23:09:36.001Z,4.40
2023-02-19T23:12:06.014Z,4.28
2023-02-19T23:14:32.818Z,4.38
2023-02-19T23:16:59.654Z,4.55
2023-02-19T23:19:26.606Z,4.40
2023-02-19T23:21:53.671Z,5.28
2023-02-19T23:24:20.632Z,5.20
2023-02-19T23:26:50.429Z,5.28
2023-02-19T23:29:24.389Z,4.97
2023-02-19T23:31:51.939Z,5.80
2023-02-19T23:34:20.954Z,4.88
2023-02-19T23:36:49.657Z,5.28
2023-02-19T23:39:19.022Z,4.82
2023-02-19T23:41:47.792Z,5.30
2023-02-19T23:44:14.733Z,6.07
2023-02-19T23:46:41.640Z,7.90
2023-02-19T23:49:08.342Z,5.35
2023-02-19T23:51:35.166Z,5.15
2023-02-19T23:54:01.854Z,5.03
2023-02-19T23:56:29.492Z,6.10
2023-02-19T23:58:57.590Z,5.88
